Time;durP1;ratioP1;P1;durP2;ratioP2;P2;SDS_P1;SDS_P2;PMS_P1;PMS_P2;Temp;Humidity;BMP_temperature;BMP_pressure;BME280_temperature;BME280_humidity;BME280_pressure;Samples;Min_cycle;Max_cycle;Signal;HPM_P1;HPM_P2
2021/09/20 00:01:03;;;;;;;10.53;8.37;;;15.00;99.90;;;;;;5060530;28;20202;-78
2021/09/20 00:03:32;;;;;;;11.43;8.53;;;14.90;99.90;;;;;;5074670;28;20671;-78
2021/09/20 00:05:58;;;;;;;10.83;8.10;;;14.90;99.90;;;;;;5074517;28;20207;-78
2021/09/20 00:08:25;;;;;;;11.23;8.07;;;14.90;99.90;;;;;;5074780;28;20207;-78
2021/09/20 00:10:52;;;;;;;12.43;8.00;;;14.90;99.90;;;;;;5074794;28;20199;-78
2021/09/20 00:13:19;;;;;;;12.53;8.40;;;14.90;99.90;;;;;;5074077;28;20205;-78
2021/09/20 00:15:46;;;;;;;12.73;8.57;;;14.90;99.90;;;;;;5072918;28;20219;-78
2021/09/20 00:18:13;;;;;;;13.03;8.97;;;14.90;99.90;;;;;;5074672;28;20194;-78
2021/09/20 00:20:41;;;;;;;11.90;8.70;;;15.00;99.90;;;;;;5074505;28;20294;-78
2021/09/20 00:23:08;;;;;;;11.40;8.93;;;14.90;99.90;;;;;;5074503;28;20210;-78
2021/09/20 00:25:35;;;;;;;11.90;8.63;;;14.80;99.90;;;;;;5074711;28;20195;-78
2021/09/20 00:28:02;;;;;;;11.37;8.20;;;14.60;99.90;;;;;;5074150;28;20215;-78
2021/09/20 00:30:29;;;;;;;11.80;8.27;;;14.70;99.90;;;;;;5074520;28;20202;-78
2021/09/20 00:32:56;;;;;;;11.73;8.13;;;14.90;99.90;;;;;;5074040;28;20211;-78
2021/09/20 00:35:23;;;;;;;13.80;8.57;;;15.00;99.90;;;;;;5074166;28;20227;-78
2021/09/20 00:37:51;;;;;;;12.33;8.23;;;15.00;99.90;;;;;;5074535;28;20651;-79
2021/09/20 00:40:18;;;;;;;13.10;8.40;;;15.00;99.90;;;;;;5074175;28;20203;-78
2021/09/20 00:42:45;;;;;;;11.17;8.47;;;14.90;99.90;;;;;;5074179;28;20282;-78
2021/09/20 00:45:12;;;;;;;12.23;8.90;;;14.90;99.90;;;;;;5074299;28;20274;-78
2021/09/20 00:47:39;;;;;;;9.77;7.63;;;15.00;99.90;;;;;;5073942;28;20195;-78
2021/09/20 00:50:07;;;;;;;11.80;8.03;;;15.10;99.90;;;;;;5073805;28;20208;-78
2021/09/20 00:52:34;;;;;;;12.90;8.37;;;15.00;99.90;;;;;;5073823;28;20196;-78
2021/09/20 00:55:04;;;;;;;12.77;8.70;;;15.10;99.90;;;;;;5073649;28;20558;-78
2021/09/20 00:57:31;;;;;;;10.07;7.83;;;15.20;99.90;;;;;;5074001;28;20199;-78
2021/09/20 00:59:58;;;;;;;12.50;7.87;;;14.90;99.90;;;;;;5073983;28;20200;-78
2021/09/20 01:02:25;;;;;;;11.63;7.63;;;14.90;99.90;;;;;;5073676;28;20210;-78
2021/09/20 01:04:52;;;;;;;11.47;7.70;;;15.10;99.90;;;;;;5073704;28;20195;-78
2021/09/20 01:07:19;;;;;;;12.80;8.33;;;15.20;99.90;;;;;;5074003;28;20564;-78
2021/09/20 01:09:45;;;;;;;12.60;8.93;;;15.10;99.90;;;;;;5073418;28;20295;-77
2021/09/20 01:12:14;;;;;;;12.27;8.00;;;15.00;99.90;;;;;;5073565;28;20234;-78
2021/09/20 01:14:41;;;;;;;12.10;8.33;;;14.90;99.90;;;;;;5073600;28;20587;-78
2021/09/20 01:17:09;;;;;;;13.00;7.97;;;14.80;99.90;;;;;;5073451;28;20556;-78
2021/09/20 01:19:36;;;;;;;11.13;8.27;;;14.90;99.90;;;;;;5073212;28;20690;-78
2021/09/20 01:22:05;;;;;;;10.67;7.90;;;15.00;99.90;;;;;;5073502;28;20581;-78
2021/09/20 01:24:33;;;;;;;10.53;8.27;;;15.00;99.90;;;;;;5073503;28;20199;-78
2021/09/20 01:27:02;;;;;;;13.83;8.33;;;14.90;99.90;;;;;;5073303;28;20676;-78
2021/09/20 01:29:29;;;;;;;11.87;8.57;;;14.70;99.90;;;;;;5073265;28;20210;-78
2021/09/20 01:31:58;;;;;;;12.37;8.17;;;14.60;99.90;;;;;;5073176;28;20266;-78
2021/09/20 01:34:25;;;;;;;13.40;8.73;;;14.50;99.90;;;;;;5072993;28;20258;-78
2021/09/20 01:36:52;;;;;;;11.93;8.27;;;14.40;99.90;;;;;;5073510;28;20573;-78
2021/09/20 01:39:21;;;;;;;11.50;8.50;;;14.30;99.90;;;;;;5072983;28;20205;-78
2021/09/20 01:41:49;;;;;;;11.90;8.37;;;14.40;99.90;;;;;;5072717;28;20204;-78
2021/09/20 01:44:17;;;;;;;13.83;8.47;;;14.40;99.90;;;;;;5073150;28;20282;-78
2021/09/20 01:46:44;;;;;;;12.30;8.90;;;14.40;99.90;;;;;;5073063;28;20211;-78
2021/09/20 01:49:11;;;;;;;11.67;8.47;;;14.50;99.90;;;;;;5073293;28;20205;-78
2021/09/20 01:51:39;;;;;;;13.20;8.47;;;14.30;99.90;;;;;;5073280;28;20203;-78
2021/09/20 01:54:06;;;;;;;12.53;7.90;;;14.20;99.90;;;;;;5072903;28;20664;-78
2021/09/20 01:56:33;;;;;;;12.43;8.90;;;14.20;99.90;;;;;;5073356;28;20202;-79
2021/09/20 01:59:03;;;;;;;12.83;8.70;;;14.20;99.90;;;;;;5072945;28;20671;-78
2021/09/20 02:01:30;;;;;;;13.27;8.57;;;14.10;99.90;;;;;;5073074;28;20195;-78
2021/09/20 02:03:57;;;;;;;15.23;8.97;;;14.00;99.90;;;;;;5072820;28;20282;-78
2021/09/20 02:06:24;;;;;;;13.60;8.77;;;13.90;99.90;;;;;;5072889;28;20206;-78
2021/09/20 02:08:55;;;;;;;11.17;8.30;;;13.90;99.90;;;;;;5073127;28;20238;-78
2021/09/20 02:11:24;;;;;;;13.47;8.57;;;13.80;99.90;;;;;;5070555;28;20200;-78
2021/09/20 02:13:51;;;;;;;13.60;8.57;;;13.80;99.90;;;;;;5076850;28;20195;-78
2021/09/20 02:16:20;;;;;;;12.97;8.30;;;13.70;99.90;;;;;;5078991;28;20221;-78
2021/09/20 02:18:47;;;;;;;14.53;8.30;;;13.60;99.90;;;;;;5073018;28;20210;-78
2021/09/20 02:21:15;;;;;;;12.13;8.30;;;13.60;99.90;;;;;;5072688;28;20682;-78
2021/09/20 02:23:42;;;;;;;15.10;8.73;;;13.80;99.90;;;;;;5072682;28;20685;-78
2021/09/20 02:26:10;;;;;;;14.50;8.70;;;14.00;99.90;;;;;;5072923;28;20286;-78
2021/09/20 02:28:37;;;;;;;14.47;8.73;;;14.00;99.90;;;;;;5072921;28;20195;-78
2021/09/20 02:31:05;;;;;;;16.87;9.43;;;14.10;99.90;;;;;;5073049;28;20199;-78
2021/09/20 02:33:34;;;;;;;15.57;9.67;;;14.20;99.90;;;;;;5072610;28;20215;-78
2021/09/20 02:36:01;;;;;;;16.10;9.30;;;14.20;99.90;;;;;;5072789;28;20253;-78
2021/09/20 02:38:29;;;;;;;14.90;9.20;;;14.10;99.90;;;;;;5072728;28;20210;-78
2021/09/20 02:40:56;;;;;;;15.77;9.73;;;14.00;99.90;;;;;;5072878;28;20206;-78
2021/09/20 02:43:23;;;;;;;16.83;9.67;;;13.80;99.90;;;;;;5072518;28;20206;-78
2021/09/20 02:45:51;;;;;;;13.73;9.13;;;13.60;99.90;;;;;;5072352;28;20279;-78
2021/09/20 02:48:18;;;;;;;17.83;8.97;;;13.60;99.90;;;;;;5073019;28;20196;-78
2021/09/20 02:50:46;;;;;;;14.40;9.23;;;13.60;99.90;;;;;;5072768;28;20204;-78
2021/09/20 02:53:13;;;;;;;16.60;9.47;;;13.70;99.90;;;;;;5076328;28;20290;-78
2021/09/20 02:55:40;;;;;;;16.33;9.60;;;13.50;99.90;;;;;;5075941;28;20755;-78
2021/09/20 02:58:07;;;;;;;17.43;9.63;;;13.20;99.90;;;;;;5076122;28;20200;-78
2021/09/20 03:00:34;;;;;;;15.43;9.17;;;13.10;99.90;;;;;;5076059;28;20199;-78
2021/09/20 03:03:02;;;;;;;16.53;9.40;;;13.10;99.90;;;;;;5076027;28;20553;-78
2021/09/20 03:05:29;;;;;;;16.70;9.80;;;13.20;99.90;;;;;;5076317;28;20230;-78
2021/09/20 03:07:57;;;;;;;16.03;10.07;;;13.20;99.90;;;;;;5076405;28;20210;-78
2021/09/20 03:10:24;;;;;;;16.07;9.47;;;13.30;99.90;;;;;;5076305;28;20204;-78
2021/09/20 03:12:51;;;;;;;15.33;8.97;;;13.30;99.90;;;;;;5076164;28;20199;-78
2021/09/20 03:15:18;;;;;;;14.87;9.07;;;13.20;99.90;;;;;;5075788;28;20219;-78
2021/09/20 03:17:45;;;;;;;14.23;8.80;;;13.00;99.90;;;;;;5075847;28;20204;-78
2021/09/20 03:20:12;;;;;;;13.80;9.00;;;12.90;99.90;;;;;;5075640;28;20290;-78
2021/09/20 03:22:39;;;;;;;17.03;9.07;;;12.90;99.90;;;;;;5075905;28;20195;-78
2021/09/20 03:25:09;;;;;;;14.93;9.10;;;12.80;99.90;;;;;;5076173;28;20199;-78
2021/09/20 03:27:37;;;;;;;12.77;9.03;;;12.90;99.90;;;;;;5075511;28;20549;-78
2021/09/20 03:30:05;;;;;;;14.77;8.70;;;12.90;99.90;;;;;;5075730;28;20196;-78
2021/09/20 03:32:32;;;;;;;15.67;9.37;;;12.90;99.90;;;;;;5075617;28;20207;-78
2021/09/20 03:34:59;;;;;;;16.53;10.10;;;12.90;99.90;;;;;;5075270;28;20591;-78
2021/09/20 03:37:26;;;;;;;14.13;9.13;;;12.80;99.90;;;;;;5075289;28;20199;-78
2021/09/20 03:39:53;;;;;;;13.43;8.93;;;12.80;99.90;;;;;;5075625;28;20199;-78
2021/09/20 03:42:21;;;;;;;15.87;9.27;;;12.80;99.90;;;;;;5075491;28;20199;-78
2021/09/20 03:44:48;;;;;;;16.00;9.60;;;12.80;99.90;;;;;;5075167;28;20206;-78
2021/09/20 03:47:15;;;;;;;15.57;9.23;;;12.80;99.90;;;;;;5075443;28;20200;-78
2021/09/20 03:49:42;;;;;;;19.73;9.53;;;12.80;99.90;;;;;;5075307;28;20204;-78
2021/09/20 03:52:08;;;;;;;14.80;9.90;;;12.90;99.90;;;;;;5075122;28;20204;-78
2021/09/20 03:54:35;;;;;;;13.57;8.57;;;12.80;99.90;;;;;;5075263;28;20203;-78
2021/09/20 03:57:02;;;;;;;15.97;9.50;;;12.80;99.90;;;;;;5075346;28;20568;-78
2021/09/20 03:59:30;;;;;;;14.83;9.67;;;12.90;99.90;;;;;;5075101;28;20195;-78
2021/09/20 04:01:57;;;;;;;18.23;9.87;;;12.80;99.90;;;;;;5075268;28;20206;-78
2021/09/20 04:04:24;;;;;;;15.87;9.67;;;12.80;99.90;;;;;;5074081;28;20680;-78
2021/09/20 04:06:51;;;;;;;22.27;9.83;;;12.80;99.90;;;;;;5075105;28;20288;-78
2021/09/20 04:09:19;;;;;;;17.27;9.30;;;12.80;99.90;;;;;;5074728;28;20207;-78
2021/09/20 04:11:46;;;;;;;18.80;10.17;;;12.80;99.90;;;;;;5074919;28;20287;-78
2021/09/20 04:14:12;;;;;;;14.50;9.83;;;12.80;99.90;;;;;;5074960;28;20227;-78
2021/09/20 04:16:41;;;;;;;18.77;9.83;;;12.80;99.90;;;;;;5074810;28;20310;-78
2021/09/20 04:19:07;;;;;;;19.17;10.47;;;12.80;99.90;;;;;;5074405;28;20195;-78
2021/09/20 04:21:34;;;;;;;17.93;10.17;;;12.80;99.90;;;;;;5074546;28;20199;-78
2021/09/20 04:24:01;;;;;;;16.40;10.07;;;12.70;99.90;;;;;;5074748;28;20261;-78
2021/09/20 04:26:28;;;;;;;19.20;9.87;;;12.70;99.90;;;;;;5074555;28;20204;-78
2021/09/20 04:28:55;;;;;;;16.93;10.13;;;12.70;99.90;;;;;;5074333;28;20664;-78
2021/09/20 04:31:21;;;;;;;19.37;10.27;;;12.80;99.90;;;;;;5074565;28;20206;-78
2021/09/20 04:33:50;;;;;;;21.83;10.50;;;12.80;99.90;;;;;;5074083;28;20207;-78
2021/09/20 04:36:16;;;;;;;20.97;10.40;;;12.70;99.90;;;;;;5074039;28;20224;-77
2021/09/20 04:38:43;;;;;;;17.27;9.60;;;12.70;99.90;;;;;;5074341;28;20204;-78
2021/09/20 04:41:10;;;;;;;23.77;11.07;;;12.70;99.90;;;;;;5073888;28;20222;-78
2021/09/20 04:43:37;;;;;;;21.10;10.97;;;12.70;99.90;;;;;;5073929;28;20649;-79
2021/09/20 04:46:04;;;;;;;21.20;10.77;;;12.70;99.90;;;;;;5074236;28;20196;-78
2021/09/20 04:48:31;;;;;;;22.13;10.57;;;12.70;99.90;;;;;;5074224;28;20205;-78
2021/09/20 04:50:59;;;;;;;20.07;11.27;;;12.80;99.90;;;;;;5074053;28;20203;-78
2021/09/20 04:53:26;;;;;;;17.63;10.60;;;12.70;99.90;;;;;;5073994;28;20199;-78
2021/09/20 04:55:52;;;;;;;17.33;11.13;;;12.80;99.90;;;;;;5074023;28;20246;-78
2021/09/20 04:58:19;;;;;;;17.07;11.23;;;12.70;99.90;;;;;;5073859;28;20208;-78
2021/09/20 05:00:46;;;;;;;21.60;10.80;;;12.70;99.90;;;;;;5073882;28;20200;-77
2021/09/20 05:03:13;;;;;;;22.47;11.33;;;12.60;99.90;;;;;;5074014;28;20204;-78
2021/09/20 05:05:40;;;;;;;17.27;11.50;;;12.60;99.90;;;;;;5073755;28;20563;-78
2021/09/20 05:08:08;;;;;;;19.53;11.83;;;12.60;99.90;;;;;;5073583;28;20198;-77
2021/09/20 05:10:35;;;;;;;18.97;11.40;;;12.60;99.90;;;;;;5073545;28;20294;-77
2021/09/20 05:13:02;;;;;;;22.50;11.37;;;12.50;99.90;;;;;;5073306;28;20306;-77
2021/09/20 05:15:29;;;;;;;19.03;11.63;;;12.40;99.90;;;;;;5086703;28;20306;-77
2021/09/20 05:17:57;;;;;;;21.03;11.97;;;12.40;99.90;;;;;;5085626;28;20199;-77
2021/09/20 05:20:24;;;;;;;20.70;12.40;;;12.40;99.90;;;;;;5072146;28;20727;-78
2021/09/20 05:22:51;;;;;;;18.33;11.60;;;12.40;99.90;;;;;;5064066;28;20222;-77
2021/09/20 05:25:22;;;;;;;23.37;13.03;;;12.40;99.90;;;;;;5069018;28;20222;-77
2021/09/20 05:27:49;;;;;;;20.77;13.03;;;12.40;99.90;;;;;;5072476;28;20199;-78
2021/09/20 05:30:16;;;;;;;24.83;13.87;;;12.40;99.90;;;;;;5064674;28;20570;-77
2021/09/20 05:32:44;;;;;;;24.07;13.10;;;12.40;99.90;;;;;;5071836;28;20297;-76
2021/09/20 05:35:12;;;;;;;23.57;13.57;;;12.40;99.90;;;;;;5072610;28;20210;-77
2021/09/20 05:37:39;;;;;;;23.30;13.53;;;12.30;99.90;;;;;;5071949;28;20196;-79
2021/09/20 05:40:08;;;;;;;24.10;13.37;;;12.30;99.90;;;;;;5071718;28;20648;-77
2021/09/20 05:42:39;;;;;;;25.20;13.93;;;12.40;99.90;;;;;;5071215;28;20204;-77
2021/09/20 05:45:07;;;;;;;20.93;12.53;;;12.30;99.90;;;;;;5072019;28;20199;-78
2021/09/20 05:47:34;;;;;;;21.53;12.60;;;12.50;99.90;;;;;;5072034;28;20199;-78
2021/09/20 05:50:00;;;;;;;21.37;13.23;;;12.50;99.90;;;;;;5070790;28;20290;-78
2021/09/20 05:52:27;;;;;;;23.40;12.97;;;12.50;99.90;;;;;;5067359;28;20635;-78
2021/09/20 05:54:54;;;;;;;27.13;14.13;;;12.50;99.90;;;;;;5070238;28;20289;-77
2021/09/20 05:57:21;;;;;;;27.70;12.83;;;12.40;99.90;;;;;;5070824;28;20226;-77
2021/09/20 05:59:49;;;;;;;22.70;13.70;;;12.40;99.90;;;;;;5072616;28;20257;-78
2021/09/20 06:02:17;;;;;;;23.90;13.77;;;12.40;99.90;;;;;;5072476;28;20206;-77
2021/09/20 06:04:44;;;;;;;22.60;14.23;;;12.40;99.90;;;;;;5072328;28;20196;-77
2021/09/20 06:07:11;;;;;;;24.07;13.23;;;12.50;99.90;;;;;;5072262;28;20195;-78
2021/09/20 06:09:38;;;;;;;24.40;13.87;;;12.50;99.90;;;;;;5066761;28;20578;-77
2021/09/20 06:12:05;;;;;;;26.07;13.80;;;12.50;99.90;;;;;;5072283;28;20203;-78
2021/09/20 06:14:33;;;;;;;32.10;14.73;;;12.60;99.90;;;;;;5072125;28;20756;-77
2021/09/20 06:17:01;;;;;;;25.23;13.87;;;12.70;99.90;;;;;;5072369;28;20774;-78
2021/09/20 06:19:28;;;;;;;25.07;13.53;;;12.70;99.90;;;;;;5072321;28;20199;-78
2021/09/20 06:21:55;;;;;;;24.87;14.97;;;12.70;99.90;;;;;;5072520;28;20241;-78
2021/09/20 06:24:22;;;;;;;26.50;14.30;;;12.70;99.90;;;;;;5072540;28;20206;-77
2021/09/20 06:26:48;;;;;;;23.57;13.83;;;12.60;99.90;;;;;;5073285;28;20219;-77
2021/09/20 06:29:15;;;;;;;26.33;14.83;;;12.70;99.90;;;;;;5076242;28;20277;-77
2021/09/20 06:31:43;;;;;;;28.33;14.60;;;12.70;99.90;;;;;;5076387;28;20195;-77
2021/09/20 06:34:11;;;;;;;25.20;13.67;;;12.70;99.90;;;;;;5076213;28;20204;-78
2021/09/20 06:36:39;;;;;;;23.67;15.07;;;12.80;99.90;;;;;;5075525;28;20219;-77
2021/09/20 06:39:07;;;;;;;24.37;14.77;;;12.80;99.90;;;;;;5076049;28;20242;-78
2021/09/20 06:41:34;;;;;;;26.90;15.13;;;12.80;99.90;;;;;;5075549;28;20286;-77
2021/09/20 06:44:02;;;;;;;26.03;14.90;;;12.90;99.90;;;;;;5075795;28;20200;-78
2021/09/20 06:46:30;;;;;;;26.63;14.83;;;12.90;99.90;;;;;;5075673;28;20210;-78
2021/09/20 06:48:57;;;;;;;26.77;15.40;;;13.00;99.90;;;;;;5075972;28;20200;-78
2021/09/20 06:51:26;;;;;;;25.30;14.47;;;13.00;99.90;;;;;;5076099;28;20206;-78
2021/09/20 06:53:53;;;;;;;28.67;15.17;;;13.10;99.90;;;;;;5075014;28;20700;-77
2021/09/20 06:56:20;;;;;;;26.20;14.50;;;13.30;99.90;;;;;;5074793;28;20314;-78
2021/09/20 06:58:47;;;;;;;23.70;13.80;;;13.20;99.90;;;;;;5075318;28;20204;-77
2021/09/20 07:01:15;;;;;;;26.40;13.33;;;13.30;99.90;;;;;;5075642;28;20653;-78
2021/09/20 07:03:42;;;;;;;24.20;14.10;;;13.30;99.90;;;;;;5075662;28;20231;-77
2021/09/20 07:06:09;;;;;;;27.50;14.00;;;13.40;99.90;;;;;;5075399;28;20199;-77
2021/09/20 07:08:37;;;;;;;28.57;13.80;;;13.40;99.90;;;;;;5075190;28;20205;-78
2021/09/20 07:11:04;;;;;;;24.13;13.90;;;13.40;99.90;;;;;;5075191;28;20315;-78
2021/09/20 07:13:31;;;;;;;26.50;13.27;;;13.50;99.90;;;;;;5075581;28;20216;-77
2021/09/20 07:15:58;;;;;;;26.33;13.30;;;13.60;99.90;;;;;;5075177;28;20226;-78
2021/09/20 07:18:25;;;;;;;29.33;12.93;;;13.60;99.90;;;;;;5075188;28;20213;-77
2021/09/20 07:20:52;;;;;;;24.53;12.60;;;13.50;99.90;;;;;;5075229;28;20200;-77
2021/09/20 07:23:19;;;;;;;28.47;13.60;;;13.50;99.90;;;;;;5074933;28;20210;-77
2021/09/20 07:25:47;;;;;;;27.97;13.13;;;13.60;99.90;;;;;;5075401;28;20203;-77
2021/09/20 07:28:14;;;;;;;26.20;13.30;;;13.70;99.90;;;;;;5075141;28;20205;-77
2021/09/20 07:30:42;;;;;;;25.27;13.03;;;13.80;99.90;;;;;;5074934;28;20231;-78
2021/09/20 07:33:10;;;;;;;30.60;12.47;;;13.90;99.90;;;;;;5074938;28;20694;-77
2021/09/20 07:35:37;;;;;;;24.47;12.97;;;14.10;99.90;;;;;;5074765;28;20199;-78
2021/09/20 07:38:05;;;;;;;27.60;12.90;;;14.10;99.90;;;;;;5073137;28;20269;-77
2021/09/20 07:40:32;;;;;;;20.17;12.80;;;14.10;99.90;;;;;;5074182;28;20230;-78
2021/09/20 07:43:00;;;;;;;24.27;12.23;;;14.30;99.90;;;;;;5074723;28;20202;-77
2021/09/20 07:45:27;;;;;;;30.27;12.70;;;14.30;99.90;;;;;;5074786;28;20201;-77
2021/09/20 07:47:54;;;;;;;25.63;12.20;;;14.20;99.90;;;;;;5074674;28;20294;-78
2021/09/20 07:50:22;;;;;;;23.13;13.33;;;14.40;99.90;;;;;;5073096;28;20196;-78
2021/09/20 07:52:50;;;;;;;27.87;14.13;;;14.30;99.90;;;;;;5057696;28;20196;-77
2021/09/20 07:55:18;;;;;;;22.73;12.43;;;14.50;99.90;;;;;;5067699;28;20199;-78
2021/09/20 07:57:46;;;;;;;20.93;12.43;;;14.70;99.90;;;;;;5068776;28;20220;-78
2021/09/20 08:00:15;;;;;;;25.47;13.07;;;14.90;99.90;;;;;;5054831;28;20210;-77
2021/09/20 08:02:43;;;;;;;20.93;12.50;;;14.90;99.90;;;;;;5065058;28;20195;-77
2021/09/20 08:05:11;;;;;;;20.67;12.03;;;14.80;99.90;;;;;;5074119;28;20200;-78
2021/09/20 08:07:38;;;;;;;29.03;13.40;;;14.90;99.90;;;;;;5074232;28;20279;-77
2021/09/20 08:10:06;;;;;;;23.33;13.00;;;15.10;99.90;;;;;;5074476;28;20355;-77
2021/09/20 08:12:33;;;;;;;19.80;12.33;;;15.10;99.90;;;;;;5074278;28;20208;-77
2021/09/20 08:14:59;;;;;;;23.03;12.43;;;15.10;99.90;;;;;;5080118;28;20196;-77
2021/09/20 08:17:28;;;;;;;18.77;10.83;;;15.00;99.90;;;;;;5083431;28;20212;-77
2021/09/20 08:19:55;;;;;;;22.00;12.17;;;15.00;99.90;;;;;;5074505;28;20203;-77
2021/09/20 08:22:22;;;;;;;19.97;11.70;;;15.10;99.90;;;;;;5074338;28;20208;-77
2021/09/20 08:24:49;;;;;;;22.83;12.13;;;15.20;99.90;;;;;;5074378;28;20199;-77
2021/09/20 08:27:16;;;;;;;23.23;12.13;;;15.30;99.90;;;;;;5065780;28;20203;-78
2021/09/20 08:29:43;;;;;;;28.73;11.60;;;15.50;99.90;;;;;;5069376;28;20227;-77
2021/09/20 08:32:10;;;;;;;20.43;12.00;;;15.70;99.90;;;;;;5069795;28;20310;-77
2021/09/20 08:34:38;;;;;;;25.10;11.67;;;15.60;99.90;;;;;;5063483;28;20203;-77
2021/09/20 08:37:05;;;;;;;21.97;11.77;;;15.60;99.90;;;;;;5069343;28;20227;-77
2021/09/20 08:39:32;;;;;;;18.90;11.00;;;15.80;99.90;;;;;;5073690;28;20641;-77
2021/09/20 08:41:59;;;;;;;15.07;10.53;;;15.80;99.90;;;;;;5072934;28;20199;-77
2021/09/20 08:44:26;;;;;;;18.10;10.90;;;15.80;99.90;;;;;;5069820;28;20656;-77
2021/09/20 08:46:54;;;;;;;18.63;10.70;;;15.90;99.90;;;;;;5056694;28;20212;-77
2021/09/20 08:49:25;;;;;;;18.50;10.73;;;16.20;99.90;;;;;;5068347;28;20215;-77
2021/09/20 08:51:55;;;;;;;16.17;11.10;;;16.00;99.90;;;;;;5069650;28;20213;-76
2021/09/20 08:54:22;;;;;;;17.70;10.77;;;16.00;99.90;;;;;;5065307;28;20207;-77
2021/09/20 08:56:50;;;;;;;23.17;11.10;;;16.10;99.90;;;;;;5070275;28;20224;-77
2021/09/20 08:59:17;;;;;;;18.00;11.47;;;16.20;99.90;;;;;;5067106;28;20218;-77
2021/09/20 09:01:47;;;;;;;17.60;10.90;;;16.20;99.90;;;;;;5073012;28;20295;-76
2021/09/20 09:04:24;;;;;;;18.37;11.20;;;16.20;99.90;;;;;;5073225;28;20200;-77
2021/09/20 09:06:58;;;;;;;20.53;11.47;;;16.50;99.90;;;;;;5073167;28;20199;-77
2021/09/20 09:09:31;;;;;;;24.43;11.87;;;16.50;99.90;;;;;;5073333;28;20211;-77
2021/09/20 09:12:19;;;;;;;21.00;11.07;;;16.70;99.90;;;;;;5073314;28;20211;-77
2021/09/20 09:14:49;;;;;;;17.20;10.33;;;16.70;99.90;;;;;;5072473;28;20200;-77
2021/09/20 09:17:20;;;;;;;16.23;9.97;;;16.50;99.90;;;;;;5071156;28;20219;-77
2021/09/20 09:19:50;;;;;;;18.50;10.63;;;16.70;99.90;;;;;;5071899;28;20207;-77
2021/09/20 09:22:19;;;;;;;21.70;11.67;;;16.80;99.90;;;;;;5071950;28;20667;-77
2021/09/20 09:24:58;;;;;;;21.93;11.07;;;17.00;99.90;;;;;;5069274;28;20227;-77
2021/09/20 09:27:25;;;;;;;13.07;8.60;;;16.90;99.90;;;;;;5053623;28;20214;-77
2021/09/20 09:30:02;;;;;;;15.30;9.10;;;16.90;99.90;;;;;;5052826;28;20293;-78
2021/09/20 09:32:29;;;;;;;12.40;8.67;;;17.00;99.90;;;;;;5066463;28;20626;-77
2021/09/20 09:34:58;;;;;;;15.57;8.97;;;16.70;99.90;;;;;;5071575;28;20199;-77
2021/09/20 09:37:27;;;;;;;15.00;9.37;;;16.70;99.90;;;;;;5072651;28;20670;-77
2021/09/20 09:40:10;;;;;;;17.70;8.93;;;16.70;99.90;;;;;;5068117;28;20202;-77
2021/09/20 09:42:37;;;;;;;16.67;8.93;;;16.80;99.90;;;;;;5063116;28;20278;-77
2021/09/20 09:45:23;;;;;;;14.30;9.40;;;16.90;99.90;;;;;;5071592;28;20196;-77
2021/09/20 09:47:51;;;;;;;21.70;10.73;;;17.40;99.90;;;;;;5072323;28;20205;-77
2021/09/20 09:50:23;;;;;;;18.77;11.13;;;17.40;99.90;;;;;;5071519;28;20191;-77
2021/09/20 09:52:57;;;;;;;19.10;9.53;;;17.70;99.90;;;;;;5072452;28;20206;-76
2021/09/20 09:55:25;;;;;;;15.23;9.87;;;17.90;99.90;;;;;;5072452;28;20279;-77
2021/09/20 09:57:53;;;;;;;17.70;9.50;;;18.10;99.90;;;;;;5077747;28;20214;-75
2021/09/20 10:00:22;;;;;;;21.23;10.03;;;18.30;99.90;;;;;;5089435;28;20202;-77
2021/09/20 10:02:50;;;;;;;17.13;10.10;;;18.10;99.90;;;;;;5072490;28;20195;-77
2021/09/20 10:05:19;;;;;;;18.73;9.70;;;17.90;99.90;;;;;;5076999;28;20195;-77
2021/09/20 10:07:48;;;;;;;18.20;10.07;;;17.80;99.90;;;;;;5073432;28;20557;-77
2021/09/20 10:10:18;;;;;;;16.57;10.13;;;18.10;99.90;;;;;;5074934;28;20286;-77
2021/09/20 10:12:47;;;;;;;22.57;11.07;;;18.40;99.90;;;;;;5073103;28;20282;-78
2021/09/20 10:15:15;;;;;;;16.67;10.40;;;18.30;99.90;;;;;;5072353;28;20676;-78
2021/09/20 10:17:42;;;;;;;14.90;9.40;;;18.70;99.90;;;;;;5072147;28;20314;-78
2021/09/20 10:20:12;;;;;;;13.33;8.90;;;19.30;99.90;;;;;;5072419;28;20206;-77
2021/09/20 10:22:39;;;;;;;12.57;9.03;;;18.80;99.90;;;;;;5072191;28;20204;-77
2021/09/20 10:25:08;;;;;;;13.53;9.90;;;18.50;99.90;;;;;;5072032;28;20592;-77
2021/09/20 10:27:37;;;;;;;16.83;9.77;;;18.20;99.90;;;;;;5068740;28;20202;-77
2021/09/20 10:30:08;;;;;;;15.83;10.37;;;18.30;99.90;;;;;;5080086;28;20203;-77
2021/09/20 10:32:35;;;;;;;17.90;10.50;;;18.40;99.90;;;;;;5083342;28;20214;-77
2021/09/20 10:35:21;;;;;;;16.77;9.77;;;18.80;99.90;;;;;;5074917;28;20202;-78
2021/09/20 10:37:48;;;;;;;14.30;10.20;;;19.20;99.90;;;;;;5076704;28;20221;-77
2021/09/20 10:40:16;;;;;;;14.03;9.70;;;19.60;99.90;;;;;;5070277;28;20211;-77
2021/09/20 10:42:59;;;;;;;15.53;9.60;;;19.00;99.90;;;;;;5079125;28;20199;-78
2021/09/20 10:45:52;;;;;;;17.30;9.83;;;18.70;99.90;;;;;;5065909;28;20195;-78
2021/09/20 10:48:59;;;;;;;15.20;9.90;;;18.80;99.90;;;;;;5071904;28;20199;-76
2021/09/20 10:51:36;;;;;;;15.87;10.10;;;19.20;99.90;;;;;;5069012;28;20205;-77
2021/09/20 10:54:14;;;;;;;17.10;10.23;;;19.20;99.90;;;;;;5060162;28;20207;-78
2021/09/20 10:56:42;;;;;;;14.87;9.47;;;20.10;99.90;;;;;;5065964;28;20215;-77
2021/09/20 10:59:23;;;;;;;12.60;8.70;;;21.10;99.90;;;;;;5063335;28;20224;-77
2021/09/20 11:02:20;;;;;;;13.43;9.93;;;21.10;99.90;;;;;;5069105;28;20214;-77
2021/09/20 11:04:47;;;;;;;14.40;8.93;;;21.10;99.90;;;;;;5064113;28;20204;-78
2021/09/20 11:07:18;;;;;;;12.80;8.93;;;20.90;99.90;;;;;;5063058;28;20662;-77
2021/09/20 11:09:53;;;;;;;12.53;8.93;;;20.30;99.90;;;;;;5067155;28;20582;-77
2021/09/20 11:12:23;;;;;;;12.53;9.13;;;20.20;99.90;;;;;;5067699;28;20196;-77
2021/09/20 11:15:05;;;;;;;12.47;8.57;;;21.40;99.90;;;;;;5071898;28;20210;-77
2021/09/20 11:17:44;;;;;;;12.87;9.43;;;21.50;99.90;;;;;;5074246;28;20249;-77
2021/09/20 11:20:25;;;;;;;14.43;9.77;;;21.70;99.90;;;;;;5071837;28;20220;-77
2021/09/20 11:23:21;;;;;;;16.17;8.87;;;21.40;99.90;;;;;;5071814;28;20224;-77
2021/09/20 11:26:19;;;;;;;12.77;9.30;;;21.70;99.90;;;;;;5074842;28;20204;-77
2021/09/20 11:28:51;;;;;;;14.63;9.77;;;21.70;99.90;;;;;;5039634;28;20201;-77
2021/09/20 11:31:21;;;;;;;13.10;10.13;;;20.70;99.90;;;;;;5056973;28;20255;-77
2021/09/20 11:33:49;;;;;;;14.13;9.50;;;21.10;99.90;;;;;;5074563;28;20299;-77
2021/09/20 11:36:26;;;;;;;14.90;9.87;;;21.00;99.90;;;;;;5074997;28;20291;-77
2021/09/20 11:39:09;;;;;;;14.20;9.70;;;20.50;99.90;;;;;;5069720;28;20290;-77
2021/09/20 11:41:37;;;;;;;10.70;8.77;;;20.70;99.90;;;;;;5075506;28;20187;-77
2021/09/20 11:44:04;;;;;;;12.73;8.47;;;21.20;99.90;;;;;;5069936;28;20200;-77
2021/09/20 11:46:32;;;;;;;14.40;9.07;;;21.20;99.90;;;;;;5070143;28;20555;-77
2021/09/20 11:49:05;;;;;;;14.87;9.13;;;20.80;99.90;;;;;;5064835;28;20199;-77
2021/09/20 11:51:32;;;;;;;13.03;9.33;;;20.80;99.90;;;;;;5074896;28;20206;-77
2021/09/20 11:53:59;;;;;;;11.83;9.00;;;20.70;99.90;;;;;;5069311;28;20290;-77
2021/09/20 11:56:28;;;;;;;14.43;9.77;;;20.90;99.90;;;;;;5071935;28;20672;-77
2021/09/20 11:58:56;;;;;;;14.17;8.90;;;20.80;99.90;;;;;;5061911;28;20227;-77
2021/09/20 12:01:25;;;;;;;16.10;9.30;;;20.70;99.90;;;;;;5074889;28;20207;-77
2021/09/20 12:03:54;;;;;;;16.90;9.37;;;20.20;99.90;;;;;;5074567;28;20204;-77
2021/09/20 12:06:30;;;;;;;13.47;9.03;;;20.20;99.90;;;;;;5066935;28;20287;-77
2021/09/20 12:09:00;;;;;;;14.50;9.73;;;20.20;99.90;;;;;;5067008;28;20201;-77
2021/09/20 12:11:27;;;;;;;15.03;10.57;;;19.80;99.90;;;;;;5074531;28;20294;-77
2021/09/20 12:13:54;;;;;;;16.87;10.43;;;19.70;99.90;;;;;;5074652;28;20230;-77
2021/09/20 12:16:21;;;;;;;14.33;10.17;;;19.90;99.90;;;;;;5074470;28;20203;-77
2021/09/20 12:18:48;;;;;;;10.83;8.70;;;20.70;99.90;;;;;;5073967;28;20220;-77
2021/09/20 12:21:18;;;;;;;17.60;9.60;;;20.90;99.90;;;;;;5073323;28;20204;-76
2021/09/20 12:23:48;;;;;;;16.57;9.63;;;20.50;99.90;;;;;;5064955;28;20208;-77
2021/09/20 12:26:17;;;;;;;11.60;9.03;;;20.10;99.90;;;;;;5070927;28;20210;-77
2021/09/20 12:28:50;;;;;;;12.63;8.60;;;19.80;99.90;;;;;;5074193;28;20180;-76
2021/09/20 12:31:20;;;;;;;14.53;8.80;;;19.60;99.90;;;;;;5074190;28;20198;-77
2021/09/20 12:33:56;;;;;;;14.30;8.93;;;19.90;99.90;;;;;;5073818;28;20215;-77
2021/09/20 12:36:27;;;;;;;11.43;8.47;;;19.90;99.90;;;;;;5074231;28;20536;-77
2021/09/20 12:39:04;;;;;;;12.47;8.37;;;19.80;99.90;;;;;;5070852;28;20211;-77
2021/09/20 12:41:35;;;;;;;11.10;8.17;;;19.80;99.90;;;;;;5073975;28;20237;-77